Nearby METAR Reports

 

KAIK - Aiken, South Carolina, USA
Distance from station: NE 8mi, 13km
Updated: Tue, 23-Nov-2021 06:15 EST
NOT Current
Clear
Clear
 Wind from NNE
Wind: NNE 15 km/h
Temperature: 34°F , 1°C
Wind Chill: 27°F , -3°C
Dew Point: 19°F , -7°C
Humidity: 56%
Barometer: 30.17 inHg , 1021.7 hPa
Clouds: Clear
Visibility: 16 km
2021/11/23 11:15 KAIK 231115Z AUTO 02008KT 10SM CLR 01/M07 A3017 RMK AO2 T00141066
KDNL - Augusta/Daniel, Georgia, USA
Distance from station: WSW 16mi, 26km
Updated: Mon, 29-Nov-2021 13:53 EST
Clear
Clear
 Wind from NE
Wind: NE 13 km/h
Temperature: 57°F , 14°C
Dew Point: 23°F , -5°C
Humidity: 27%
Barometer: 30.07 inHg , 1018.3 hPa
Clouds: Clear
Visibility: 16 km
2021/11/29 18:53 KDNL 291853Z AUTO 04007KT 10SM CLR 14/M05 A3007 RMK AO2 SLP179 T01391050
 
KAGS - Augusta/Bush, Georgia, USA
Distance from station: SW 18mi, 28km
Updated: Mon, 29-Nov-2021 13:53 EST
Clear
Clear
 Wind from NNW
Wind: NNW 11 km/h
Temperature: 61°F , 16°C
Dew Point: 21°F , -6°C
Humidity: 22%
Barometer: 30.06 inHg , 1017.9 hPa
Clouds: Clear
Visibility: 16 km
2021/11/29 18:53 KAGS 291853Z 34006KT 10SM CLR 16/M06 A3006 RMK AO2 SLP177 T01561056
KBNL - Barnwell, South Carolina, USA
Distance from station: SE 33mi, 52km
Updated: Mon, 29-Nov-2021 14:55 EST
Clear
Clear
 Wind from calm
Wind: Calm
Temperature: 55°F , 13°C
Dew Point: 23°F , -5°C
Humidity: 28%
Barometer: 30.05 inHg , 1017.6 hPa
Clouds: Clear
Visibility: 16 km
2021/11/29 19:55 KBNL 291955Z AUTO 00000KT 10SM CLR 13/M05 A3005 RMK AO2
 
KXNO - North Af Auxfld, South Carolina, USA
Distance from station: E 41mi, 66km
Updated: Mon, 29-Nov-2021 14:26 EST
Haze, Clear
Haze, Clear
 Wind from N
Wind: N 13 km/h
Temperature: 55°F , 13°C
Dew Point: 16°F , -9°C
Humidity: 21%
Barometer: 30.05 inHg , 1017.6 hPa
Summary: Haze
Clouds: Clear
Visibility: 5 km
2021/11/29 19:26 KXNO 291926Z AUTO 35007KT 3SM HZ CLR 13/M09 A3005 RMK AO2 SLP180 $
KHQU - Mcduffie/Thomson, Georgia, USA
Distance from station: W 42mi, 68km
Updated: Mon, 29-Nov-2021 14:35 EST
Clear
Clear
 Wind from NE
Wind: NE 7 km/h
Temperature: 54°F , 12°C
Dew Point: 21°F , -6°C
Humidity: 28%
Barometer: 30.06 inHg , 1017.9 hPa
Clouds: Clear
Visibility: 16 km
2021/11/29 19:35 KHQU 291935Z AUTO 05004KT 10SM CLR 12/M06 A3006 RMK AO2 T01221056
 
KCAE - Columbia, South Carolina, USA
Distance from station: ENE 46mi, 74km
Updated: Mon, 29-Nov-2021 13:56 EST
Few Clouds
Few Clouds
 Wind from N
Wind: N 13 km/h
Temperature: 54°F , 12°C
Dew Point: 16°F , -9°C
Humidity: 22%
Barometer: 30.06 inHg , 1017.9 hPa
Clouds: Few Clouds
Visibility: 16 km
Cloud details: Few Clouds 22000 ft
2021/11/29 18:56 KCAE 291856Z 35007KT 10SM FEW220 12/M09 A3006 RMK AO2 SLP179 T01221089
K2J5 - Millen, Georgia, USA
Distance from station: SSW 48mi, 77km
Updated: Mon, 29-Nov-2021 14:35 EST
Clear
Clear
 
Temperature: 57°F , 14°C
Dew Point: 27°F , -3°C
Humidity: 31%
Barometer: 30.05 inHg , 1017.6 hPa
Clouds: Clear
Visibility: 16 km
2021/11/29 19:35 K2J5 291935Z AUTO 10SM CLR 14/M03 A3005 RMK AO2 T01441029
 
KAQX - Allendale, South Carolina, USA
Distance from station: SE 50mi, 80km
Updated: Mon, 29-Nov-2021 14:35 EST
Clear
Clear
 Wind from NNW
Wind: NNW 6 km/h, Gust: 22 km/h
Temperature: 57°F , 14°C
Dew Point: 25°F , -4°C
Humidity: 29%
Barometer: 30.04 inHg , 1017.3 hPa
Clouds: Clear
Visibility: 16 km
2021/11/29 19:35 KAQX 291935Z AUTO 33003G12KT 10SM CLR 14/M04 A3004 RMK AO2